Goshen, Canada
Current Conditions -  °F | °C
As of 3:00 AM on Friday 31 Oct 2014 (Local Time) from CYPD Reporting Station
Light Rain Light Rain  
Wind Chill: 41°   Ceiling: 3300
Heat Index: 41°   Visibility: 9mi
Dew Point: 41°   Wind: 2mph
Humidity: 100%   Direction: NA
Pressure: 29.91"   Gusts: NA
Location:  45.38°N, 61.98°W
Report Text: CYPD 310600Z AUTO VRB02KT 9SM -RA BKN033 OVC041 05/05 A2991 RMK SLP130
Loading
Personal Weather Stations






























Interactive Weather Map
Tropical Storm Tracking
New forecast layout! Learn more

10-Day Weather Forecast

Advertisements
Track Severe Weather on mobile